Poplar, Montana
Current Conditions -  °F | °C
As of 6:53 PM on Saturday 25 Oct 2014 (Local Time) from KOLF Reporting Station
Clear Clear  
Wind Chill: 51°   Ceiling: Unl
Heat Index: 51°   Visibility: 10mi
Dew Point: 32°   Wind: 7mph
Humidity: 48%   Direction: 60°ENE
Pressure: 29.8"   Gusts: NA
Location:  48.11°N, 105.2°W
Report Text: KOLF 260053Z AUTO 06006KT 10SM CLR 11/00 A2980 RMK AO2 SLP102 T01060000
Loading
Personal Weather Stations






























Interactive Weather Map
Tropical Storm Tracking
New forecast layout! Learn more

10-Day Weather Forecast

Advertisements
Track Severe Weather on mobile